Terminal Aerodrome Forecast
Issued by NWS Greer, SC

Home | Current Version | Previous Version | Text Only | Print | Product List | Glossary On
Versions: 1 2 3 4 5 6 7 8 9 10 11 12 13 14 15 16 17 18 19 20 21 22
000
FTUS42 KGSP 200901 AAA
TAFCLT
TAF AMD
KCLT 200901Z 2009/2106 14006KT P6SM -SHRA OVC040
     FM201100 16007KT 4SM -SHRA BR OVC020
     FM201300 18006KT 4SM -SHRA BR OVC007
     FM201600 20006KT P6SM OVC007
     FM202200 20003KT P6SM BKN035
     FM210400 21003KT P6SM BKN025=

USA.gov is the U.S. government's official web portal to all federal, state and local government web resources and services.